sensor_id;sensor_type;location;lat;lon;timestamp;P1;durP1;ratioP1;P2;durP2;ratioP2
13263;SDS011;6700;51.988;7.646;2022-12-07T00:00:51;23.57;;;14.67;;
13263;SDS011;6700;51.988;7.646;2022-12-07T00:03:18;17.57;;;14.73;;
13263;SDS011;6700;51.988;7.646;2022-12-07T00:05:46;17.87;;;14.20;;
13263;SDS011;6700;51.988;7.646;2022-12-07T00:08:13;16.57;;;14.27;;
13263;SDS011;6700;51.988;7.646;2022-12-07T00:10:40;16.00;;;13.53;;
13263;SDS011;6700;51.988;7.646;2022-12-07T00:13:07;18.03;;;13.97;;
13263;SDS011;6700;51.988;7.646;2022-12-07T00:15:34;19.23;;;13.87;;
13263;SDS011;6700;51.988;7.646;2022-12-07T00:18:02;16.50;;;13.67;;
13263;SDS011;6700;51.988;7.646;2022-12-07T00:20:29;18.20;;;13.67;;
13263;SDS011;6700;51.988;7.646;2022-12-07T00:22:57;17.03;;;12.43;;
13263;SDS011;6700;51.988;7.646;2022-12-07T00:25:24;14.53;;;13.03;;
13263;SDS011;6700;51.988;7.646;2022-12-07T00:27:52;16.27;;;13.23;;
13263;SDS011;6700;51.988;7.646;2022-12-07T00:30:22;14.17;;;12.67;;
13263;SDS011;6700;51.988;7.646;2022-12-07T00:32:49;15.60;;;12.83;;
13263;SDS011;6700;51.988;7.646;2022-12-07T00:35:16;15.53;;;11.93;;
13263;SDS011;6700;51.988;7.646;2022-12-07T00:37:44;14.83;;;12.30;;
13263;SDS011;6700;51.988;7.646;2022-12-07T00:40:11;13.87;;;11.97;;
13263;SDS011;6700;51.988;7.646;2022-12-07T00:42:41;15.03;;;11.60;;
13263;SDS011;6700;51.988;7.646;2022-12-07T00:45:10;15.43;;;12.57;;
13263;SDS011;6700;51.988;7.646;2022-12-07T00:47:37;13.80;;;11.97;;
13263;SDS011;6700;51.988;7.646;2022-12-07T00:50:05;15.33;;;12.13;;
13263;SDS011;6700;51.988;7.646;2022-12-07T00:52:32;13.40;;;11.23;;
13263;SDS011;6700;51.988;7.646;2022-12-07T00:54:59;14.90;;;11.50;;
13263;SDS011;6700;51.988;7.646;2022-12-07T00:57:26;13.43;;;10.97;;
13263;SDS011;6700;51.988;7.646;2022-12-07T00:59:53;15.53;;;11.73;;
13263;SDS011;6700;51.988;7.646;2022-12-07T01:02:25;11.73;;;10.33;;
13263;SDS011;6700;51.988;7.646;2022-12-07T01:04:52;13.67;;;11.50;;
13263;SDS011;6700;51.988;7.646;2022-12-07T01:07:19;15.20;;;11.63;;
13263;SDS011;6700;51.988;7.646;2022-12-07T01:09:46;14.43;;;11.43;;
13263;SDS011;6700;51.988;7.646;2022-12-07T01:12:13;14.83;;;11.27;;
13263;SDS011;6700;51.988;7.646;2022-12-07T01:14:41;15.23;;;10.67;;
13263;SDS011;6700;51.988;7.646;2022-12-07T01:17:08;14.47;;;11.40;;
13263;SDS011;6700;51.988;7.646;2022-12-07T01:19:36;14.83;;;11.40;;
13263;SDS011;6700;51.988;7.646;2022-12-07T01:22:03;14.07;;;10.37;;
13263;SDS011;6700;51.988;7.646;2022-12-07T01:24:30;12.43;;;10.83;;
13263;SDS011;6700;51.988;7.646;2022-12-07T01:26:57;16.47;;;11.67;;
13263;SDS011;6700;51.988;7.646;2022-12-07T01:29:26;11.63;;;10.23;;
13263;SDS011;6700;51.988;7.646;2022-12-07T01:31:53;14.03;;;11.17;;
13263;SDS011;6700;51.988;7.646;2022-12-07T01:34:20;14.10;;;11.97;;
13263;SDS011;6700;51.988;7.646;2022-12-07T01:36:47;13.47;;;10.93;;
13263;SDS011;6700;51.988;7.646;2022-12-07T01:39:14;14.20;;;11.27;;
13263;SDS011;6700;51.988;7.646;2022-12-07T01:41:41;12.60;;;11.30;;
13263;SDS011;6700;51.988;7.646;2022-12-07T01:46:40;16.50;;;10.77;;
13263;SDS011;6700;51.988;7.646;2022-12-07T01:49:53;14.80;;;11.77;;
13263;SDS011;6700;51.988;7.646;2022-12-07T01:51:58;13.00;;;10.60;;
13263;SDS011;6700;51.988;7.646;2022-12-07T01:54:28;15.47;;;10.93;;
13263;SDS011;6700;51.988;7.646;2022-12-07T01:56:55;14.00;;;11.13;;
13263;SDS011;6700;51.988;7.646;2022-12-07T01:59:24;14.77;;;11.13;;
13263;SDS011;6700;51.988;7.646;2022-12-07T02:01:53;16.37;;;10.90;;
13263;SDS011;6700;51.988;7.646;2022-12-07T02:04:21;14.07;;;10.73;;
13263;SDS011;6700;51.988;7.646;2022-12-07T02:06:49;16.10;;;11.93;;
13263;SDS011;6700;51.988;7.646;2022-12-07T02:09:18;15.70;;;10.73;;
13263;SDS011;6700;51.988;7.646;2022-12-07T02:11:45;16.40;;;11.00;;
13263;SDS011;6700;51.988;7.646;2022-12-07T02:14:12;14.37;;;11.40;;
13263;SDS011;6700;51.988;7.646;2022-12-07T02:16:47;13.43;;;10.53;;
13263;SDS011;6700;51.988;7.646;2022-12-07T02:24:43;12.97;;;10.17;;
13263;SDS011;6700;51.988;7.646;2022-12-07T02:27:17;12.30;;;10.73;;
13263;SDS011;6700;51.988;7.646;2022-12-07T02:29:57;15.50;;;10.97;;
13263;SDS011;6700;51.988;7.646;2022-12-07T02:33:14;17.30;;;11.47;;
13263;SDS011;6700;51.988;7.646;2022-12-07T02:35:21;15.80;;;11.63;;
13263;SDS011;6700;51.988;7.646;2022-12-07T02:43:11;15.77;;;11.00;;
13263;SDS011;6700;51.988;7.646;2022-12-07T02:45:41;13.10;;;10.53;;
13263;SDS011;6700;51.988;7.646;2022-12-07T02:48:10;16.57;;;11.40;;
13263;SDS011;6700;51.988;7.646;2022-12-07T02:50:38;14.13;;;10.87;;
13263;SDS011;6700;51.988;7.646;2022-12-07T02:53:27;15.60;;;10.47;;
13263;SDS011;6700;51.988;7.646;2022-12-07T02:55:53;17.23;;;10.70;;
13263;SDS011;6700;51.988;7.646;2022-12-07T02:58:28;17.67;;;10.60;;
13263;SDS011;6700;51.988;7.646;2022-12-07T03:03:29;17.20;;;10.90;;
13263;SDS011;6700;51.988;7.646;2022-12-07T03:05:59;13.57;;;11.17;;
13263;SDS011;6700;51.988;7.646;2022-12-07T03:08:31;18.93;;;10.73;;
13263;SDS011;6700;51.988;7.646;2022-12-07T03:11:08;13.20;;;10.17;;
13263;SDS011;6700;51.988;7.646;2022-12-07T03:13:41;16.13;;;10.23;;
13263;SDS011;6700;51.988;7.646;2022-12-07T03:16:13;18.87;;;10.67;;
13263;SDS011;6700;51.988;7.646;2022-12-07T03:18:43;13.40;;;10.33;;
13263;SDS011;6700;51.988;7.646;2022-12-07T03:21:14;11.43;;;9.63;;
13263;SDS011;6700;51.988;7.646;2022-12-07T03:23:42;14.40;;;10.77;;
13263;SDS011;6700;51.988;7.646;2022-12-07T03:26:12;14.53;;;10.10;;
13263;SDS011;6700;51.988;7.646;2022-12-07T03:28:41;16.00;;;10.73;;
13263;SDS011;6700;51.988;7.646;2022-12-07T03:31:14;11.67;;;8.80;;
13263;SDS011;6700;51.988;7.646;2022-12-07T03:33:46;12.07;;;9.20;;
13263;SDS011;6700;51.988;7.646;2022-12-07T03:38:57;12.50;;;9.50;;
13263;SDS011;6700;51.988;7.646;2022-12-07T03:41:28;17.00;;;10.47;;
13263;SDS011;6700;51.988;7.646;2022-12-07T03:43:58;18.67;;;10.63;;
13263;SDS011;6700;51.988;7.646;2022-12-07T03:49:06;16.93;;;9.87;;
13263;SDS011;6700;51.988;7.646;2022-12-07T03:56:32;12.43;;;8.57;;
13263;SDS011;6700;51.988;7.646;2022-12-07T03:59:00;11.10;;;8.60;;
13263;SDS011;6700;51.988;7.646;2022-12-07T04:01:27;14.57;;;10.20;;
13263;SDS011;6700;51.988;7.646;2022-12-07T04:03:54;12.83;;;9.07;;
13263;SDS011;6700;51.988;7.646;2022-12-07T04:06:21;22.33;;;10.63;;
13263;SDS011;6700;51.988;7.646;2022-12-07T04:08:48;11.67;;;9.57;;
13263;SDS011;6700;51.988;7.646;2022-12-07T04:11:15;14.73;;;9.57;;
13263;SDS011;6700;51.988;7.646;2022-12-07T04:13:42;15.00;;;9.07;;
13263;SDS011;6700;51.988;7.646;2022-12-07T04:16:28;11.97;;;8.20;;
13263;SDS011;6700;51.988;7.646;2022-12-07T04:18:55;12.07;;;7.97;;
13263;SDS011;6700;51.988;7.646;2022-12-07T04:21:23;10.07;;;8.50;;
13263;SDS011;6700;51.988;7.646;2022-12-07T04:23:50;13.33;;;8.27;;
13263;SDS011;6700;51.988;7.646;2022-12-07T04:26:17;13.17;;;8.60;;
13263;SDS011;6700;51.988;7.646;2022-12-07T04:28:44;9.67;;;6.87;;
13263;SDS011;6700;51.988;7.646;2022-12-07T04:31:11;16.13;;;8.63;;
13263;SDS011;6700;51.988;7.646;2022-12-07T04:33:38;11.50;;;8.10;;
13263;SDS011;6700;51.988;7.646;2022-12-07T04:36:05;10.70;;;7.20;;
13263;SDS011;6700;51.988;7.646;2022-12-07T04:38:33;12.00;;;7.40;;
13263;SDS011;6700;51.988;7.646;2022-12-07T04:41:04;12.40;;;7.97;;
13263;SDS011;6700;51.988;7.646;2022-12-07T04:43:32;10.43;;;6.73;;
13263;SDS011;6700;51.988;7.646;2022-12-07T04:45:59;11.67;;;7.10;;
13263;SDS011;6700;51.988;7.646;2022-12-07T04:48:26;16.77;;;7.07;;
13263;SDS011;6700;51.988;7.646;2022-12-07T04:50:53;12.37;;;7.13;;
13263;SDS011;6700;51.988;7.646;2022-12-07T04:53:20;9.40;;;6.67;;
13263;SDS011;6700;51.988;7.646;2022-12-07T04:55:47;11.70;;;6.60;;
13263;SDS011;6700;51.988;7.646;2022-12-07T04:58:14;11.73;;;6.83;;
13263;SDS011;6700;51.988;7.646;2022-12-07T05:00:41;12.27;;;6.60;;
13263;SDS011;6700;51.988;7.646;2022-12-07T05:03:09;17.43;;;6.77;;
13263;SDS011;6700;51.988;7.646;2022-12-07T05:05:39;16.60;;;5.97;;
13263;SDS011;6700;51.988;7.646;2022-12-07T05:08:06;13.40;;;6.33;;
13263;SDS011;6700;51.988;7.646;2022-12-07T05:10:33;7.03;;;5.70;;
13263;SDS011;6700;51.988;7.646;2022-12-07T05:13:00;12.80;;;5.83;;
13263;SDS011;6700;51.988;7.646;2022-12-07T05:15:27;10.70;;;5.80;;
13263;SDS011;6700;51.988;7.646;2022-12-07T05:17:54;15.83;;;6.90;;
13263;SDS011;6700;51.988;7.646;2022-12-07T05:20:22;12.17;;;6.17;;
13263;SDS011;6700;51.988;7.646;2022-12-07T05:22:49;8.87;;;5.47;;
13263;SDS011;6700;51.988;7.646;2022-12-07T05:25:16;10.77;;;5.60;;
13263;SDS011;6700;51.988;7.646;2022-12-07T05:27:43;10.73;;;5.33;;
13263;SDS011;6700;51.988;7.646;2022-12-07T05:30:10;12.90;;;5.63;;
13263;SDS011;6700;51.988;7.646;2022-12-07T05:32:37;8.63;;;6.50;;
13263;SDS011;6700;51.988;7.646;2022-12-07T05:35:04;6.43;;;5.07;;
13263;SDS011;6700;51.988;7.646;2022-12-07T05:37:32;10.90;;;5.40;;
13263;SDS011;6700;51.988;7.646;2022-12-07T05:39:59;10.57;;;4.83;;
13263;SDS011;6700;51.988;7.646;2022-12-07T05:42:26;9.60;;;4.70;;
13263;SDS011;6700;51.988;7.646;2022-12-07T05:44:53;10.40;;;4.97;;
13263;SDS011;6700;51.988;7.646;2022-12-07T05:47:20;10.63;;;5.10;;
13263;SDS011;6700;51.988;7.646;2022-12-07T05:49:47;14.40;;;4.87;;
13263;SDS011;6700;51.988;7.646;2022-12-07T05:52:15;5.27;;;4.40;;
13263;SDS011;6700;51.988;7.646;2022-12-07T05:54:42;10.60;;;4.63;;
13263;SDS011;6700;51.988;7.646;2022-12-07T05:57:09;7.27;;;4.00;;
13263;SDS011;6700;51.988;7.646;2022-12-07T05:59:36;15.67;;;4.97;;
13263;SDS011;6700;51.988;7.646;2022-12-07T06:02:07;5.73;;;4.13;;
13263;SDS011;6700;51.988;7.646;2022-12-07T06:04:36;8.17;;;4.03;;
13263;SDS011;6700;51.988;7.646;2022-12-07T06:07:04;7.90;;;5.07;;
13263;SDS011;6700;51.988;7.646;2022-12-07T06:09:31;13.87;;;4.27;;
13263;SDS011;6700;51.988;7.646;2022-12-07T06:11:58;10.50;;;4.10;;
13263;SDS011;6700;51.988;7.646;2022-12-07T06:14:44;4.47;;;3.67;;
13263;SDS011;6700;51.988;7.646;2022-12-07T06:17:11;7.13;;;3.60;;
13263;SDS011;6700;51.988;7.646;2022-12-07T06:19:38;5.37;;;3.40;;
13263;SDS011;6700;51.988;7.646;2022-12-07T06:22:06;4.90;;;3.43;;
13263;SDS011;6700;51.988;7.646;2022-12-07T06:24:34;4.47;;;3.30;;
13263;SDS011;6700;51.988;7.646;2022-12-07T06:27:01;5.80;;;3.57;;
13263;SDS011;6700;51.988;7.646;2022-12-07T06:29:28;7.77;;;3.40;;
13263;SDS011;6700;51.988;7.646;2022-12-07T06:31:55;10.37;;;4.20;;
13263;SDS011;6700;51.988;7.646;2022-12-07T06:34:23;7.47;;;3.83;;
13263;SDS011;6700;51.988;7.646;2022-12-07T06:36:51;3.70;;;3.17;;
13263;SDS011;6700;51.988;7.646;2022-12-07T06:39:20;12.30;;;3.67;;
13263;SDS011;6700;51.988;7.646;2022-12-07T06:41:47;6.27;;;3.50;;
13263;SDS011;6700;51.988;7.646;2022-12-07T06:44:15;9.33;;;3.73;;
13263;SDS011;6700;51.988;7.646;2022-12-07T06:46:42;8.63;;;4.30;;
13263;SDS011;6700;51.988;7.646;2022-12-07T06:49:09;6.57;;;3.93;;
13263;SDS011;6700;51.988;7.646;2022-12-07T06:51:36;6.13;;;3.60;;
13263;SDS011;6700;51.988;7.646;2022-12-07T06:54:11;9.47;;;3.97;;
13263;SDS011;6700;51.988;7.646;2022-12-07T06:56:38;8.53;;;3.90;;
13263;SDS011;6700;51.988;7.646;2022-12-07T06:59:05;10.40;;;3.60;;
13263;SDS011;6700;51.988;7.646;2022-12-07T07:01:33;7.27;;;3.23;;
13263;SDS011;6700;51.988;7.646;2022-12-07T07:04:01;9.17;;;3.43;;
13263;SDS011;6700;51.988;7.646;2022-12-07T07:06:28;7.17;;;3.40;;
13263;SDS011;6700;51.988;7.646;2022-12-07T07:08:55;8.03;;;4.20;;
13263;SDS011;6700;51.988;7.646;2022-12-07T07:11:22;9.70;;;4.33;;
13263;SDS011;6700;51.988;7.646;2022-12-07T07:13:49;9.37;;;3.67;;
13263;SDS011;6700;51.988;7.646;2022-12-07T07:16:16;6.53;;;3.17;;
13263;SDS011;6700;51.988;7.646;2022-12-07T07:18:43;8.40;;;3.43;;
13263;SDS011;6700;51.988;7.646;2022-12-07T07:21:10;8.13;;;4.13;;
13263;SDS011;6700;51.988;7.646;2022-12-07T07:23:38;12.50;;;3.93;;
13263;SDS011;6700;51.988;7.646;2022-12-07T07:26:05;7.20;;;3.43;;
13263;SDS011;6700;51.988;7.646;2022-12-07T07:28:32;6.70;;;3.33;;
13263;SDS011;6700;51.988;7.646;2022-12-07T07:30:59;7.97;;;3.50;;
13263;SDS011;6700;51.988;7.646;2022-12-07T07:33:26;9.60;;;3.60;;
13263;SDS011;6700;51.988;7.646;2022-12-07T07:35:53;8.83;;;4.57;;
13263;SDS011;6700;51.988;7.646;2022-12-07T07:38:21;9.37;;;3.90;;
13263;SDS011;6700;51.988;7.646;2022-12-07T07:40:48;7.93;;;3.60;;
13263;SDS011;6700;51.988;7.646;2022-12-07T07:43:15;6.40;;;3.17;;
13263;SDS011;6700;51.988;7.646;2022-12-07T07:45:42;5.60;;;3.43;;
13263;SDS011;6700;51.988;7.646;2022-12-07T07:48:10;7.20;;;3.13;;
13263;SDS011;6700;51.988;7.646;2022-12-07T07:50:37;9.90;;;3.60;;
13263;SDS011;6700;51.988;7.646;2022-12-07T07:53:04;7.20;;;4.40;;
13263;SDS011;6700;51.988;7.646;2022-12-07T07:55:31;6.03;;;4.13;;
13263;SDS011;6700;51.988;7.646;2022-12-07T07:57:59;7.73;;;3.73;;
13263;SDS011;6700;51.988;7.646;2022-12-07T08:00:26;15.97;;;12.00;;
13263;SDS011;6700;51.988;7.646;2022-12-07T08:02:53;14.60;;;7.90;;
13263;SDS011;6700;51.988;7.646;2022-12-07T08:05:20;7.67;;;4.40;;
13263;SDS011;6700;51.988;7.646;2022-12-07T08:07:47;17.60;;;6.53;;
13263;SDS011;6700;51.988;7.646;2022-12-07T08:10:14;10.83;;;3.87;;
13263;SDS011;6700;51.988;7.646;2022-12-07T08:12:42;10.77;;;4.37;;
13263;SDS011;6700;51.988;7.646;2022-12-07T08:15:30;18.33;;;4.30;;
13263;SDS011;6700;51.988;7.646;2022-12-07T08:17:57;6.03;;;2.67;;
13263;SDS011;6700;51.988;7.646;2022-12-07T08:20:29;12.83;;;3.60;;
13263;SDS011;6700;51.988;7.646;2022-12-07T08:22:56;5.37;;;2.70;;
13263;SDS011;6700;51.988;7.646;2022-12-07T08:25:23;9.80;;;2.50;;
13263;SDS011;6700;51.988;7.646;2022-12-07T08:27:51;6.07;;;3.00;;
13263;SDS011;6700;51.988;7.646;2022-12-07T08:30:18;6.60;;;3.80;;
13263;SDS011;6700;51.988;7.646;2022-12-07T08:32:46;9.77;;;3.23;;
13263;SDS011;6700;51.988;7.646;2022-12-07T08:35:14;5.00;;;2.73;;
13263;SDS011;6700;51.988;7.646;2022-12-07T08:37:41;9.97;;;3.30;;
13263;SDS011;6700;51.988;7.646;2022-12-07T08:40:09;6.20;;;3.50;;
13263;SDS011;6700;51.988;7.646;2022-12-07T08:42:36;8.80;;;3.83;;
13263;SDS011;6700;51.988;7.646;2022-12-07T08:45:06;5.97;;;2.83;;
13263;SDS011;6700;51.988;7.646;2022-12-07T08:47:34;10.17;;;3.13;;
13263;SDS011;6700;51.988;7.646;2022-12-07T08:50:03;5.27;;;3.20;;
13263;SDS011;6700;51.988;7.646;2022-12-07T08:52:31;6.40;;;3.67;;
13263;SDS011;6700;51.988;7.646;2022-12-07T08:54:58;5.30;;;2.63;;
13263;SDS011;6700;51.988;7.646;2022-12-07T08:57:26;5.77;;;3.83;;
13263;SDS011;6700;51.988;7.646;2022-12-07T08:59:54;8.13;;;3.47;;
13263;SDS011;6700;51.988;7.646;2022-12-07T09:02:22;5.23;;;2.87;;
13263;SDS011;6700;51.988;7.646;2022-12-07T09:04:49;4.93;;;2.17;;
13263;SDS011;6700;51.988;7.646;2022-12-07T09:07:16;8.37;;;3.23;;
13263;SDS011;6700;51.988;7.646;2022-12-07T09:09:43;6.60;;;2.73;;
13263;SDS011;6700;51.988;7.646;2022-12-07T09:12:10;9.63;;;3.00;;
13263;SDS011;6700;51.988;7.646;2022-12-07T09:14:37;10.10;;;2.60;;
13263;SDS011;6700;51.988;7.646;2022-12-07T09:17:08;6.23;;;2.30;;
13263;SDS011;6700;51.988;7.646;2022-12-07T09:19:36;8.47;;;3.17;;
13263;SDS011;6700;51.988;7.646;2022-12-07T09:22:04;5.03;;;2.50;;
13263;SDS011;6700;51.988;7.646;2022-12-07T09:24:31;7.87;;;2.53;;
13263;SDS011;6700;51.988;7.646;2022-12-07T09:26:58;4.83;;;2.40;;
13263;SDS011;6700;51.988;7.646;2022-12-07T09:29:25;8.17;;;2.90;;
13263;SDS011;6700;51.988;7.646;2022-12-07T09:31:52;4.40;;;2.70;;
13263;SDS011;6700;51.988;7.646;2022-12-07T09:34:20;4.93;;;2.00;;
13263;SDS011;6700;51.988;7.646;2022-12-07T09:36:47;10.37;;;4.17;;
13263;SDS011;6700;51.988;7.646;2022-12-07T09:39:14;4.57;;;1.70;;
13263;SDS011;6700;51.988;7.646;2022-12-07T09:41:42;5.90;;;2.40;;
13263;SDS011;6700;51.988;7.646;2022-12-07T09:44:11;7.27;;;3.20;;
13263;SDS011;6700;51.988;7.646;2022-12-07T09:46:40;6.80;;;3.20;;
13263;SDS011;6700;51.988;7.646;2022-12-07T09:49:18;4.07;;;3.10;;
13263;SDS011;6700;51.988;7.646;2022-12-07T09:51:46;8.30;;;2.50;;
13263;SDS011;6700;51.988;7.646;2022-12-07T09:54:14;4.47;;;2.17;;
13263;SDS011;6700;51.988;7.646;2022-12-07T09:56:42;7.37;;;3.30;;
13263;SDS011;6700;51.988;7.646;2022-12-07T09:59:13;14.30;;;4.87;;
13263;SDS011;6700;51.988;7.646;2022-12-07T10:01:40;7.97;;;2.47;;
13263;SDS011;6700;51.988;7.646;2022-12-07T10:04:18;10.27;;;2.50;;
13263;SDS011;6700;51.988;7.646;2022-12-07T10:06:47;10.73;;;2.77;;
13263;SDS011;6700;51.988;7.646;2022-12-07T10:09:18;8.23;;;2.53;;
13263;SDS011;6700;51.988;7.646;2022-12-07T10:12:05;7.20;;;2.13;;
13263;SDS011;6700;51.988;7.646;2022-12-07T10:14:35;3.80;;;2.50;;
13263;SDS011;6700;51.988;7.646;2022-12-07T10:17:30;8.57;;;2.17;;
13263;SDS011;6700;51.988;7.646;2022-12-07T10:22:57;7.63;;;2.63;;
13263;SDS011;6700;51.988;7.646;2022-12-07T10:25:31;4.77;;;2.00;;
13263;SDS011;6700;51.988;7.646;2022-12-07T10:28:11;6.23;;;2.13;;
13263;SDS011;6700;51.988;7.646;2022-12-07T10:30:49;7.00;;;2.30;;
13263;SDS011;6700;51.988;7.646;2022-12-07T10:33:40;6.30;;;1.77;;
13263;SDS011;6700;51.988;7.646;2022-12-07T10:38:48;3.17;;;1.53;;
13263;SDS011;6700;51.988;7.646;2022-12-07T10:41:15;3.83;;;2.20;;
13263;SDS011;6700;51.988;7.646;2022-12-07T10:43:46;7.23;;;2.17;;
13263;SDS011;6700;51.988;7.646;2022-12-07T10:46:29;6.80;;;2.00;;
13263;SDS011;6700;51.988;7.646;2022-12-07T10:51:52;7.53;;;1.87;;
13263;SDS011;6700;51.988;7.646;2022-12-07T11:02:23;10.27;;;3.70;;
13263;SDS011;6700;51.988;7.646;2022-12-07T11:23:18;3.47;;;2.03;;
13263;SDS011;6700;51.988;7.646;2022-12-07T11:25:53;5.60;;;2.07;;
13263;SDS011;6700;51.988;7.646;2022-12-07T11:35:47;6.47;;;1.97;;
13263;SDS011;6700;51.988;7.646;2022-12-07T11:38:16;4.83;;;2.27;;
13263;SDS011;6700;51.988;7.646;2022-12-07T11:40:50;7.03;;;2.60;;
13263;SDS011;6700;51.988;7.646;2022-12-07T11:43:22;6.03;;;2.00;;
13263;SDS011;6700;51.988;7.646;2022-12-07T11:45:59;7.63;;;2.90;;
13263;SDS011;6700;51.988;7.646;2022-12-07T11:48:33;6.33;;;3.80;;
13263;SDS011;6700;51.988;7.646;2022-12-07T11:51:02;5.67;;;2.00;;
13263;SDS011;6700;51.988;7.646;2022-12-07T11:58:42;7.27;;;3.60;;
13263;SDS011;6700;51.988;7.646;2022-12-07T12:06:36;10.13;;;2.67;;
13263;SDS011;6700;51.988;7.646;2022-12-07T12:09:11;5.27;;;2.33;;
13263;SDS011;6700;51.988;7.646;2022-12-07T12:12:02;4.13;;;2.50;;
13263;SDS011;6700;51.988;7.646;2022-12-07T12:15:03;8.13;;;3.30;;
13263;SDS011;6700;51.988;7.646;2022-12-07T12:20:23;2.93;;;2.00;;
13263;SDS011;6700;51.988;7.646;2022-12-07T12:25:40;7.53;;;2.10;;
13263;SDS011;6700;51.988;7.646;2022-12-07T12:28:19;6.87;;;2.07;;
13263;SDS011;6700;51.988;7.646;2022-12-07T12:30:47;4.90;;;1.73;;
13263;SDS011;6700;51.988;7.646;2022-12-07T12:33:30;4.43;;;1.87;;
13263;SDS011;6700;51.988;7.646;2022-12-07T12:38:48;4.87;;;2.40;;
13263;SDS011;6700;51.988;7.646;2022-12-07T12:46:55;3.50;;;1.70;;
13263;SDS011;6700;51.988;7.646;2022-12-07T12:51:54;7.20;;;3.10;;
13263;SDS011;6700;51.988;7.646;2022-12-07T12:54:22;10.43;;;2.70;;
13263;SDS011;6700;51.988;7.646;2022-12-07T12:59:38;5.70;;;2.03;;
13263;SDS011;6700;51.988;7.646;2022-12-07T13:10:20;7.67;;;2.40;;
13263;SDS011;6700;51.988;7.646;2022-12-07T13:15:37;5.87;;;2.40;;
13263;SDS011;6700;51.988;7.646;2022-12-07T13:20:51;3.63;;;1.70;;
13263;SDS011;6700;51.988;7.646;2022-12-07T13:23:23;4.37;;;1.90;;
13263;SDS011;6700;51.988;7.646;2022-12-07T13:25:51;5.50;;;2.40;;
13263;SDS011;6700;51.988;7.646;2022-12-07T13:28:20;8.17;;;3.10;;
13263;SDS011;6700;51.988;7.646;2022-12-07T13:31:00;6.37;;;2.40;;
13263;SDS011;6700;51.988;7.646;2022-12-07T13:33:30;4.03;;;1.77;;
13263;SDS011;6700;51.988;7.646;2022-12-07T13:35:57;5.77;;;2.17;;
13263;SDS011;6700;51.988;7.646;2022-12-07T13:38:30;2.80;;;1.77;;
13263;SDS011;6700;51.988;7.646;2022-12-07T13:41:02;9.60;;;2.57;;
13263;SDS011;6700;51.988;7.646;2022-12-07T13:43:30;9.10;;;2.30;;
13263;SDS011;6700;51.988;7.646;2022-12-07T13:45:57;8.43;;;1.97;;
13263;SDS011;6700;51.988;7.646;2022-12-07T13:48:28;8.90;;;2.30;;
13263;SDS011;6700;51.988;7.646;2022-12-07T13:50:58;3.70;;;1.70;;
13263;SDS011;6700;51.988;7.646;2022-12-07T13:53:27;5.57;;;2.33;;
13263;SDS011;6700;51.988;7.646;2022-12-07T13:55:57;3.37;;;1.47;;
13263;SDS011;6700;51.988;7.646;2022-12-07T13:58:24;7.03;;;2.20;;
13263;SDS011;6700;51.988;7.646;2022-12-07T14:00:52;6.70;;;1.93;;
13263;SDS011;6700;51.988;7.646;2022-12-07T14:03:23;10.00;;;2.17;;
13263;SDS011;6700;51.988;7.646;2022-12-07T14:08:37;8.37;;;1.83;;
13263;SDS011;6700;51.988;7.646;2022-12-07T14:11:04;6.07;;;2.20;;
13263;SDS011;6700;51.988;7.646;2022-12-07T14:13:40;6.53;;;2.13;;
13263;SDS011;6700;51.988;7.646;2022-12-07T14:16:18;8.20;;;2.07;;
13263;SDS011;6700;51.988;7.646;2022-12-07T14:18:47;5.30;;;2.00;;
13263;SDS011;6700;51.988;7.646;2022-12-07T14:21:18;6.17;;;1.93;;
13263;SDS011;6700;51.988;7.646;2022-12-07T14:23:45;4.10;;;1.93;;
13263;SDS011;6700;51.988;7.646;2022-12-07T14:26:28;6.50;;;2.43;;
13263;SDS011;6700;51.988;7.646;2022-12-07T14:29:18;5.00;;;1.93;;
13263;SDS011;6700;51.988;7.646;2022-12-07T14:31:42;3.33;;;1.73;;
13263;SDS011;6700;51.988;7.646;2022-12-07T14:34:11;4.70;;;1.90;;
13263;SDS011;6700;51.988;7.646;2022-12-07T14:36:38;7.63;;;2.00;;
13263;SDS011;6700;51.988;7.646;2022-12-07T14:39:05;4.20;;;1.37;;
13263;SDS011;6700;51.988;7.646;2022-12-07T14:41:38;6.60;;;1.50;;
13263;SDS011;6700;51.988;7.646;2022-12-07T14:44:18;4.87;;;1.80;;
13263;SDS011;6700;51.988;7.646;2022-12-07T14:46:50;2.90;;;1.57;;
13263;SDS011;6700;51.988;7.646;2022-12-07T14:49:38;8.27;;;1.97;;
13263;SDS011;6700;51.988;7.646;2022-12-07T14:52:05;6.50;;;1.70;;
13263;SDS011;6700;51.988;7.646;2022-12-07T14:54:53;2.97;;;1.40;;
13263;SDS011;6700;51.988;7.646;2022-12-07T14:57:20;8.03;;;1.53;;
13263;SDS011;6700;51.988;7.646;2022-12-07T14:59:47;2.83;;;1.90;;
13263;SDS011;6700;51.988;7.646;2022-12-07T15:02:14;3.93;;;1.67;;
13263;SDS011;6700;51.988;7.646;2022-12-07T15:04:41;4.90;;;1.90;;
13263;SDS011;6700;51.988;7.646;2022-12-07T15:07:18;9.87;;;2.20;;
13263;SDS011;6700;51.988;7.646;2022-12-07T15:09:46;3.07;;;1.73;;
13263;SDS011;6700;51.988;7.646;2022-12-07T15:12:13;2.90;;;1.83;;
13263;SDS011;6700;51.988;7.646;2022-12-07T15:14:41;2.80;;;1.17;;
13263;SDS011;6700;51.988;7.646;2022-12-07T15:17:09;3.40;;;1.30;;
13263;SDS011;6700;51.988;7.646;2022-12-07T15:19:53;3.57;;;1.70;;
13263;SDS011;6700;51.988;7.646;2022-12-07T15:22:20;4.07;;;1.80;;
13263;SDS011;6700;51.988;7.646;2022-12-07T15:24:47;11.77;;;7.13;;
13263;SDS011;6700;51.988;7.646;2022-12-07T15:27:14;9.40;;;6.40;;
13263;SDS011;6700;51.988;7.646;2022-12-07T15:29:41;10.67;;;6.40;;
13263;SDS011;6700;51.988;7.646;2022-12-07T15:32:08;17.73;;;8.10;;
13263;SDS011;6700;51.988;7.646;2022-12-07T15:34:35;6.90;;;5.13;;
13263;SDS011;6700;51.988;7.646;2022-12-07T15:37:06;6.10;;;2.30;;
13263;SDS011;6700;51.988;7.646;2022-12-07T15:39:33;3.13;;;1.70;;
13263;SDS011;6700;51.988;7.646;2022-12-07T15:42:00;7.50;;;2.70;;
13263;SDS011;6700;51.988;7.646;2022-12-07T15:44:27;8.63;;;2.30;;
13263;SDS011;6700;51.988;7.646;2022-12-07T15:47:13;5.93;;;2.57;;
13263;SDS011;6700;51.988;7.646;2022-12-07T15:49:40;6.70;;;2.40;;
13263;SDS011;6700;51.988;7.646;2022-12-07T15:52:07;5.93;;;2.93;;
13263;SDS011;6700;51.988;7.646;2022-12-07T15:54:34;16.73;;;9.23;;
13263;SDS011;6700;51.988;7.646;2022-12-07T15:57:01;10.03;;;5.80;;
13263;SDS011;6700;51.988;7.646;2022-12-07T15:59:29;9.37;;;4.90;;
13263;SDS011;6700;51.988;7.646;2022-12-07T16:01:56;11.63;;;4.47;;
13263;SDS011;6700;51.988;7.646;2022-12-07T16:04:23;5.00;;;2.70;;
13263;SDS011;6700;51.988;7.646;2022-12-07T16:06:50;3.87;;;2.43;;
13263;SDS011;6700;51.988;7.646;2022-12-07T16:09:18;4.23;;;1.97;;
13263;SDS011;6700;51.988;7.646;2022-12-07T16:11:45;6.47;;;2.60;;
13263;SDS011;6700;51.988;7.646;2022-12-07T16:14:12;7.30;;;2.63;;
13263;SDS011;6700;51.988;7.646;2022-12-07T16:16:40;4.73;;;2.73;;
13263;SDS011;6700;51.988;7.646;2022-12-07T16:19:08;8.87;;;3.27;;
13263;SDS011;6700;51.988;7.646;2022-12-07T16:21:35;6.90;;;3.00;;
13263;SDS011;6700;51.988;7.646;2022-12-07T16:24:02;8.17;;;3.73;;
13263;SDS011;6700;51.988;7.646;2022-12-07T16:26:31;5.37;;;2.90;;
13263;SDS011;6700;51.988;7.646;2022-12-07T16:28:58;8.87;;;3.10;;
13263;SDS011;6700;51.988;7.646;2022-12-07T16:31:26;8.20;;;4.43;;
13263;SDS011;6700;51.988;7.646;2022-12-07T16:33:54;9.23;;;3.07;;
13263;SDS011;6700;51.988;7.646;2022-12-07T16:36:22;14.67;;;3.70;;
13263;SDS011;6700;51.988;7.646;2022-12-07T16:39:12;11.93;;;4.17;;
13263;SDS011;6700;51.988;7.646;2022-12-07T16:41:40;11.43;;;3.53;;
13263;SDS011;6700;51.988;7.646;2022-12-07T16:44:09;4.13;;;3.03;;
13263;SDS011;6700;51.988;7.646;2022-12-07T16:46:36;3.97;;;3.40;;
13263;SDS011;6700;51.988;7.646;2022-12-07T16:49:03;10.97;;;3.73;;
13263;SDS011;6700;51.988;7.646;2022-12-07T16:51:30;7.53;;;3.50;;
13263;SDS011;6700;51.988;7.646;2022-12-07T16:54:00;7.47;;;3.60;;
13263;SDS011;6700;51.988;7.646;2022-12-07T16:56:27;8.43;;;3.93;;
13263;SDS011;6700;51.988;7.646;2022-12-07T16:58:57;5.10;;;3.90;;
13263;SDS011;6700;51.988;7.646;2022-12-07T17:01:24;10.43;;;4.10;;